Historyczne dane pomiarowe

Dodano dane terminowe – wersja testowa.

Dane z okresu 1951-2019

Wersja bazy: 1.34 [2019-03-16, lista zmian], aktualizacja planowana na 2019-04-15

Dane meteo z obszaru Polski uzyskane na podstawie danych udostępnionych przez Instytut Meteorologii i Gospodarki Wodnej – Państwowy Instytut Badawczy.

 

Wybierz Datę:    

       

TemperaturaWilgotnośćZachmurzenieWiatrCiśnienieWidzialnośćZjawiska
 Data    tng td wb rh cc ccl cl cm ch dir g1 g2 mslp ppp      
1999-06-23 00:00:00 9.5--- 6.5 8.082wxwxwx3wx--1018.5 995.1 0.0---wx
1999-06-23 01:00:00 9.1--- 6.9 8.086wxwxwx3wx--1018.8 995.4----wx
1999-06-23 02:00:00 9.1--- 6.9 8.086wxwxwx3wx--1019.2 995.8----wx
1999-06-23 03:00:00 8.7--- 6.9 7.889wxwxwx3wx--1019.5 996.0----wx
1999-06-23 04:00:00 8.7--- 6.9 7.889wxwxwxwx3wx--1019.9 996.4----wx
1999-06-23 05:00:00 9.1--- 6.9 8.086wxwxwxwx3wx--1020.2 996.7----wx
1999-06-23 06:00:00 9.4--- 7.0 8.285wxwxwxwx3wx--1020.4 997.0 0.0---wx
1999-06-23 07:00:00 10.8--- 7.7 9.281wxwxwxwxwx3wx--1020.5 997.2----wx
1999-06-23 08:00:00 12.1--- 7.3 9.673wxwxwxwx3wx--1020.8 997.6----wx
1999-06-23 09:00:00 13.5--- 6.8 10.064wxwxwxwx3wx--1020.9 997.8----wx
1999-06-23 10:00:00 13.8--- 6.5 10.061wxwxwxwx4wx--1021.2 998.1----wx
1999-06-23 11:00:00 15.3--- 5.8 10.453wxwxwxwxwx4wx--1021.1 998.1----wx
1999-06-23 12:00:00 15.7--- 5.4 10.450wxwxwxwx4wx--1021.2 998.2 0.0---wx
1999-06-23 13:00:00 16.5--- 4.8 10.546wxwxwxwx5wx--1021.1 998.2----wx
1999-06-23 14:00:00 15.7--- 4.4 10.047wxwxwx5wx--1021.6 998.6----wx
1999-06-23 15:00:00 15.7--- 3.6 9.744wxwxwx4wx--1021.7 998.7----wx
1999-06-23 16:00:00 15.9--- 4.9 10.348wxwxwx4wx--1022.0 999.0----wx
1999-06-23 17:00:00 15.9--- 4.4 10.146wxwxwx3wx--1022.1 999.1----wx
1999-06-23 18:00:00 15.9--- 4.2 10.046wxwxwx3wx--1022.2 999.2 0.0---wx
1999-06-23 19:00:00 13.9--- 6.8 10.262wxwxwx1wx--1022.7 999.6----wx
1999-06-23 20:00:00 12.4--- 5.7 9.064wxwxwx1wx--1023.31000.0----wx
1999-06-23 21:00:00 12.5--- 5.3 8.962wxwxwx1wx--1023.51000.2----wx
1999-06-23 22:00:00 12.7--- 4.9 8.859wxwxwx1wx--1023.41000.2----wx
1999-06-23 23:00:00 12.4--- 4.7 8.660wxwxwx1wx--1023.71000.4----wx

 

Źródłem pochodzenia danych jest Instytut Meteorologii i Gospodarki Wodnej – Państwowy Instytut Badawczy. Dane Instytutu Meteorologii i Gospodarki Wodnej – Państwowego Instytutu Badawczego zostały przetworzone.

Dane źródłowe można odnaleźć na stronie https://dane.imgw.pl